createdAt,value
2018-03-15T00:01:47.781Z,6.24
2018-03-15T00:04:16.266Z,6.24
2018-03-15T00:06:43.705Z,6.23
2018-03-15T00:09:11.197Z,6.24
2018-03-15T00:11:38.719Z,6.23
2018-03-15T00:14:06.201Z,6.24
2018-03-15T00:16:33.650Z,6.28
2018-03-15T00:19:01.089Z,6.27
2018-03-15T00:21:28.551Z,6.24
2018-03-15T00:23:56.010Z,6.19
2018-03-15T00:26:24.392Z,6.16
2018-03-15T00:28:52.421Z,6.14
2018-03-15T00:31:19.894Z,6.09
2018-03-15T00:33:47.438Z,6.12
2018-03-15T00:36:14.934Z,6.12
2018-03-15T00:38:43.424Z,6.10
2018-03-15T00:41:10.953Z,6.01
2018-03-15T00:43:38.439Z,6.05
2018-03-15T00:46:05.997Z,6.02
2018-03-15T00:48:33.502Z,6.02
2018-03-15T00:51:00.997Z,6.03
2018-03-15T00:53:28.477Z,6.01
2018-03-15T00:55:55.992Z,6.03
2018-03-15T00:58:23.484Z,6.02
2018-03-15T01:00:50.968Z,5.96
2018-03-15T01:03:18.485Z,5.93
2018-03-15T01:05:45.960Z,5.92
2018-03-15T01:08:13.436Z,5.97
2018-03-15T01:10:40.932Z,5.94
2018-03-15T01:13:08.400Z,5.96
2018-03-15T01:15:35.900Z,5.96
2018-03-15T01:18:03.365Z,5.98
2018-03-15T01:20:30.860Z,5.96
2018-03-15T01:22:58.344Z,5.90
2018-03-15T01:25:25.822Z,5.87
2018-03-15T01:27:53.310Z,5.83
2018-03-15T01:30:20.826Z,5.70
2018-03-15T01:32:48.348Z,5.66
2018-03-15T01:35:15.801Z,5.66
2018-03-15T01:37:43.252Z,5.69
2018-03-15T01:40:10.694Z,5.65
2018-03-15T01:42:38.142Z,5.65
2018-03-15T01:45:05.623Z,5.66
2018-03-15T01:47:33.068Z,5.64
2018-03-15T01:50:00.519Z,5.65
2018-03-15T01:52:27.996Z,5.61
2018-03-15T01:54:55.434Z,5.58
2018-03-15T01:57:22.937Z,5.56
2018-03-15T01:59:50.368Z,5.57
2018-03-15T02:02:17.828Z,5.50
2018-03-15T02:04:45.400Z,5.48
2018-03-15T02:07:12.860Z,5.51
2018-03-15T02:09:40.315Z,5.50
2018-03-15T02:12:07.775Z,5.42
2018-03-15T02:14:35.236Z,5.44
2018-03-15T02:17:02.685Z,5.38
2018-03-15T02:19:30.110Z,5.44
2018-03-15T02:21:57.597Z,5.40
2018-03-15T02:24:25.076Z,5.35
2018-03-15T02:26:52.539Z,5.32
2018-03-15T02:29:20.025Z,5.32
2018-03-15T02:31:47.505Z,5.24
2018-03-15T02:34:14.944Z,5.23
2018-03-15T02:36:42.396Z,5.22
2018-03-15T02:39:09.910Z,5.22
2018-03-15T02:41:37.393Z,5.22
2018-03-15T02:44:04.838Z,5.19
2018-03-15T02:46:32.349Z,5.23
2018-03-15T02:48:59.817Z,5.24
2018-03-15T02:51:27.328Z,5.17
2018-03-15T02:53:54.776Z,5.15
2018-03-15T02:56:22.266Z,5.09
2018-03-15T02:58:49.703Z,5.06
2018-03-15T03:01:17.172Z,4.98
2018-03-15T03:03:44.629Z,4.98
2018-03-15T03:06:12.079Z,4.97
2018-03-15T03:08:39.593Z,4.90
2018-03-15T03:11:07.132Z,4.94
2018-03-15T03:13:34.616Z,4.84
2018-03-15T03:16:02.111Z,4.79
2018-03-15T03:18:29.602Z,4.84
2018-03-15T03:20:57.085Z,4.90
2018-03-15T03:23:24.533Z,4.89
2018-03-15T03:25:51.986Z,4.84
2018-03-15T03:28:19.445Z,4.79
2018-03-15T03:30:46.907Z,4.69
2018-03-15T03:33:14.376Z,4.65
2018-03-15T03:35:41.851Z,4.73
2018-03-15T03:38:09.294Z,4.78
2018-03-15T03:40:36.756Z,4.63
2018-03-15T03:43:05.051Z,4.60
2018-03-15T03:45:32.496Z,4.57
2018-03-15T03:47:59.951Z,4.49
2018-03-15T03:50:27.437Z,4.53
2018-03-15T03:52:54.935Z,4.53
2018-03-15T03:55:22.436Z,4.48
2018-03-15T03:57:49.880Z,4.44
2018-03-15T04:00:17.382Z,4.54
2018-03-15T04:02:44.832Z,4.46
2018-03-15T04:05:12.331Z,4.47
2018-03-15T04:07:39.790Z,4.55
2018-03-15T04:10:07.277Z,4.52
2018-03-15T04:12:34.728Z,4.55
2018-03-15T04:15:02.194Z,4.46
2018-03-15T04:17:29.650Z,4.40
2018-03-15T04:19:57.168Z,4.43
2018-03-15T04:22:24.623Z,4.43
2018-03-15T04:24:52.148Z,4.50
2018-03-15T04:27:19.587Z,4.53
2018-03-15T04:29:47.050Z,4.51
2018-03-15T04:32:14.502Z,4.46
2018-03-15T04:34:41.948Z,4.50
2018-03-15T04:37:09.404Z,4.51
2018-03-15T04:39:36.875Z,4.47
2018-03-15T04:42:04.394Z,4.49
2018-03-15T04:44:31.848Z,4.48
2018-03-15T04:46:59.308Z,4.44
2018-03-15T04:49:26.788Z,4.44
2018-03-15T04:51:54.240Z,4.45
2018-03-15T04:54:21.718Z,4.43
2018-03-15T04:56:49.169Z,4.40
2018-03-15T04:59:16.609Z,4.46
2018-03-15T05:01:44.114Z,4.40
2018-03-15T05:04:11.568Z,4.44
2018-03-15T05:06:39.039Z,4.50
2018-03-15T05:09:06.514Z,4.45
2018-03-15T05:11:33.976Z,4.47
2018-03-15T05:14:01.434Z,4.48
2018-03-15T05:16:28.885Z,4.53
2018-03-15T05:18:56.356Z,4.49
2018-03-15T05:21:23.801Z,4.49
2018-03-15T05:23:51.283Z,4.53
2018-03-15T05:26:18.739Z,4.52
2018-03-15T05:28:46.205Z,4.47
2018-03-15T05:31:13.678Z,4.42
2018-03-15T05:33:41.153Z,4.49
2018-03-15T05:36:08.622Z,4.47
2018-03-15T05:38:36.077Z,4.43
2018-03-15T05:41:04.335Z,4.50
2018-03-15T05:43:31.843Z,4.52
2018-03-15T05:45:59.305Z,4.49
2018-03-15T05:48:26.792Z,4.52
2018-03-15T05:50:54.306Z,4.50
2018-03-15T05:53:21.804Z,4.40
2018-03-15T05:55:49.560Z,4.39
2018-03-15T05:58:16.997Z,4.40
2018-03-15T06:00:44.479Z,4.41
2018-03-15T06:03:11.974Z,4.45
2018-03-15T06:05:39.450Z,4.43
2018-03-15T06:08:06.951Z,4.45
2018-03-15T06:10:34.467Z,4.39
2018-03-15T06:13:01.961Z,4.40
2018-03-15T06:15:29.404Z,4.46
2018-03-15T06:17:56.851Z,4.36
2018-03-15T06:20:24.332Z,4.32
2018-03-15T06:22:51.818Z,4.41
2018-03-15T06:25:19.281Z,4.47
2018-03-15T06:27:46.808Z,4.44
2018-03-15T06:30:14.309Z,4.44
2018-03-15T06:32:41.849Z,4.48
2018-03-15T06:35:09.293Z,4.43
2018-03-15T06:37:36.747Z,4.44
2018-03-15T06:40:04.225Z,4.54
2018-03-15T06:42:31.674Z,4.51
2018-03-15T06:44:59.189Z,4.47
2018-03-15T06:47:26.647Z,4.43
2018-03-15T06:49:54.111Z,4.44
2018-03-15T06:52:21.578Z,4.50
2018-03-15T06:54:49.123Z,4.50
2018-03-15T06:57:16.579Z,4.58
2018-03-15T06:59:44.016Z,4.60
2018-03-15T07:02:11.483Z,4.62
2018-03-15T07:04:38.923Z,4.65
2018-03-15T07:07:07.285Z,4.66
2018-03-15T07:09:40.353Z,4.70
2018-03-15T07:12:07.880Z,4.76
2018-03-15T07:14:35.345Z,4.77
2018-03-15T07:17:02.804Z,4.75
2018-03-15T07:19:30.264Z,4.75
2018-03-15T07:21:57.770Z,4.77
2018-03-15T07:24:30.229Z,4.82
2018-03-15T07:26:57.783Z,4.78
2018-03-15T07:29:25.232Z,4.82
2018-03-15T07:31:52.726Z,4.90
2018-03-15T07:34:20.195Z,4.90
2018-03-15T07:36:47.671Z,4.93
2018-03-15T07:39:15.201Z,4.89
2018-03-15T07:41:42.675Z,4.88
2018-03-15T07:44:10.105Z,4.93
2018-03-15T07:46:37.611Z,5.06
2018-03-15T07:49:05.079Z,5.12
2018-03-15T07:51:32.563Z,5.21
2018-03-15T07:54:00.079Z,5.31
2018-03-15T07:56:27.615Z,5.40
2018-03-15T07:58:55.071Z,5.45
2018-03-15T08:01:22.593Z,5.44
2018-03-15T08:03:50.123Z,5.50
2018-03-15T08:06:17.573Z,5.44
2018-03-15T08:08:45.011Z,5.45
2018-03-15T08:11:12.488Z,5.40
2018-03-15T08:13:39.931Z,5.42
2018-03-15T08:16:07.427Z,5.51
2018-03-15T08:18:34.915Z,5.47
2018-03-15T08:21:02.457Z,5.51
2018-03-15T08:23:29.959Z,5.52
2018-03-15T08:25:57.625Z,5.63
2018-03-15T08:28:25.137Z,5.67
2018-03-15T08:30:52.581Z,5.78
2018-03-15T08:33:20.067Z,5.96
2018-03-15T08:35:47.650Z,6.14
2018-03-15T08:38:15.111Z,6.31
2018-03-15T08:40:42.628Z,6.55
2018-03-15T08:43:10.081Z,6.72
2018-03-15T08:45:37.597Z,6.84
2018-03-15T08:48:05.361Z,6.81
2018-03-15T08:50:32.864Z,6.75
2018-03-15T08:53:00.353Z,6.63
2018-03-15T08:55:27.819Z,6.59
2018-03-15T08:57:55.313Z,6.70
2018-03-15T09:00:22.844Z,6.76
2018-03-15T09:02:50.313Z,6.87
2018-03-15T09:05:17.867Z,7.04
2018-03-15T09:07:45.231Z,7.36
2018-03-15T09:10:12.693Z,7.61
2018-03-15T09:12:40.180Z,7.88
2018-03-15T09:15:07.667Z,8.06
2018-03-15T09:17:35.153Z,8.21
2018-03-15T09:20:02.627Z,8.33
2018-03-15T09:22:30.155Z,8.56
2018-03-15T09:24:57.669Z,8.67
2018-03-15T09:27:25.130Z,9.02
2018-03-15T09:29:52.583Z,9.28
2018-03-15T09:32:20.085Z,9.46
2018-03-15T09:34:47.609Z,9.63
2018-03-15T09:37:15.143Z,9.68
2018-03-15T09:39:42.607Z,9.98
2018-03-15T09:42:10.139Z,10.04
2018-03-15T09:44:37.644Z,11.02
2018-03-15T09:47:05.478Z,10.98
2018-03-15T09:49:32.994Z,11.19
2018-03-15T09:52:00.511Z,11.47
2018-03-15T09:54:27.967Z,11.85
2018-03-15T09:56:55.951Z,12.31
2018-03-15T09:59:23.462Z,13.65
2018-03-15T10:01:50.903Z,14.23
2018-03-15T10:04:18.727Z,14.77
2018-03-15T10:06:46.311Z,14.92
2018-03-15T10:09:13.857Z,14.98
2018-03-15T10:11:41.383Z,15.51
2018-03-15T10:14:08.878Z,16.09
2018-03-15T10:16:36.411Z,16.54
2018-03-15T10:19:03.877Z,16.09
2018-03-15T10:21:31.371Z,16.20
2018-03-15T10:23:58.882Z,16.72
2018-03-15T10:26:26.345Z,16.27
2018-03-15T10:28:53.841Z,15.74
2018-03-15T10:31:21.333Z,15.55
2018-03-15T10:33:48.807Z,14.27
2018-03-15T10:36:16.301Z,13.37
2018-03-15T10:38:43.750Z,12.71
2018-03-15T10:41:11.250Z,13.43
2018-03-15T10:43:38.775Z,14.31
2018-03-15T10:46:06.253Z,14.92
2018-03-15T10:48:33.737Z,14.56
2018-03-15T10:51:01.188Z,14.30
2018-03-15T10:53:28.715Z,13.77
2018-03-15T10:55:56.166Z,13.74
2018-03-15T10:58:23.642Z,14.36
2018-03-15T11:00:56.817Z,14.84
2018-03-15T11:03:29.889Z,14.96
2018-03-15T11:06:02.948Z,14.56
2018-03-15T11:08:37.053Z,14.20
2018-03-15T11:11:04.571Z,14.19
2018-03-15T11:13:32.031Z,14.36
2018-03-15T11:15:59.541Z,14.59
2018-03-15T11:18:27.020Z,14.54
2018-03-15T11:20:54.540Z,14.42
2018-03-15T11:23:22.021Z,13.86
2018-03-15T11:25:49.589Z,13.82
2018-03-15T11:28:17.066Z,13.81
2018-03-15T11:30:44.543Z,13.57
2018-03-15T11:33:12.008Z,13.25
2018-03-15T11:35:39.505Z,13.30
2018-03-15T11:38:06.961Z,13.56
2018-03-15T11:40:34.441Z,14.28
2018-03-15T11:43:01.923Z,14.53
2018-03-15T11:45:29.364Z,14.74
2018-03-15T11:47:56.906Z,14.94
2018-03-15T11:50:24.474Z,15.46
2018-03-15T11:52:51.949Z,15.04
2018-03-15T11:55:19.438Z,14.57
2018-03-15T11:57:46.930Z,13.97
2018-03-15T12:00:14.407Z,13.74
2018-03-15T12:02:41.981Z,14.13
2018-03-15T12:05:09.464Z,14.07
2018-03-15T12:07:36.996Z,13.52
2018-03-15T12:10:04.453Z,13.16
2018-03-15T12:12:31.968Z,12.99
2018-03-15T12:14:59.538Z,12.78
2018-03-15T12:17:27.068Z,12.69
2018-03-15T12:19:54.579Z,12.53
2018-03-15T12:22:22.086Z,12.23
2018-03-15T12:24:49.528Z,12.03
2018-03-15T12:27:17.110Z,11.89
2018-03-15T12:29:44.639Z,11.68
2018-03-15T12:32:12.177Z,11.66
2018-03-15T12:34:39.704Z,11.71
2018-03-15T12:37:07.158Z,11.70
2018-03-15T12:39:34.661Z,11.79
2018-03-15T12:42:02.129Z,11.81
2018-03-15T12:44:29.563Z,11.97
2018-03-15T12:46:57.060Z,12.03
2018-03-15T12:49:24.535Z,11.97
2018-03-15T12:51:51.980Z,12.01
2018-03-15T12:54:19.454Z,12.48
2018-03-15T12:56:47.006Z,13.01
2018-03-15T12:59:14.584Z,12.96
2018-03-15T13:01:42.144Z,13.11
2018-03-15T13:04:09.618Z,13.18
2018-03-15T13:06:37.080Z,13.34
2018-03-15T13:09:04.536Z,13.42
2018-03-15T13:11:31.983Z,13.73
2018-03-15T13:13:59.436Z,13.99
2018-03-15T13:16:26.928Z,14.62
2018-03-15T13:18:54.424Z,15.27
2018-03-15T13:21:21.926Z,15.47
2018-03-15T13:23:49.558Z,15.10
2018-03-15T13:26:16.998Z,15.37
2018-03-15T13:28:44.452Z,15.57
2018-03-15T13:31:11.990Z,15.30
2018-03-15T13:33:39.482Z,14.98
2018-03-15T13:36:06.940Z,14.60
2018-03-15T13:38:34.487Z,14.91
2018-03-15T13:41:01.964Z,15.14
2018-03-15T13:43:29.446Z,15.32
2018-03-15T13:45:56.930Z,15.89
2018-03-15T13:48:24.413Z,16.12
2018-03-15T13:50:52.012Z,16.22
2018-03-15T13:53:19.582Z,16.06
2018-03-15T13:55:47.032Z,15.71
2018-03-15T13:58:14.568Z,15.48
2018-03-15T14:00:42.044Z,15.34
2018-03-15T14:03:09.504Z,15.15
2018-03-15T14:05:37.014Z,14.71
2018-03-15T14:08:04.502Z,14.54
2018-03-15T14:10:31.992Z,14.33
2018-03-15T14:12:59.447Z,14.36
2018-03-15T14:15:26.936Z,14.46
2018-03-15T14:17:54.426Z,14.22
2018-03-15T14:20:21.945Z,14.11
2018-03-15T14:22:49.487Z,14.14
2018-03-15T14:25:17.105Z,14.11
2018-03-15T14:27:44.566Z,13.93
2018-03-15T14:30:12.024Z,13.67
2018-03-15T14:32:39.501Z,13.47
2018-03-15T14:35:06.984Z,13.21
2018-03-15T14:37:34.483Z,13.13
2018-03-15T14:40:01.970Z,12.96
2018-03-15T14:42:29.450Z,12.81
2018-03-15T14:44:56.962Z,12.60
2018-03-15T14:47:24.459Z,12.47
2018-03-15T14:49:52.003Z,12.36
2018-03-15T14:52:19.458Z,12.31
2018-03-15T14:54:52.031Z,12.30
2018-03-15T14:57:19.534Z,12.29
2018-03-15T14:59:47.038Z,12.13
2018-03-15T15:02:14.517Z,11.94
2018-03-15T15:04:42.020Z,11.94
2018-03-15T15:07:09.566Z,11.89
2018-03-15T15:09:37.053Z,11.87
2018-03-15T15:12:04.531Z,11.76
2018-03-15T15:14:32.021Z,11.82
2018-03-15T15:16:59.478Z,11.83
2018-03-15T15:19:27.025Z,11.79
2018-03-15T15:21:54.479Z,11.69
2018-03-15T15:24:26.966Z,11.68
2018-03-15T15:26:54.445Z,11.65
2018-03-15T15:29:21.922Z,11.53
2018-03-15T15:31:49.415Z,11.54
2018-03-15T15:34:16.930Z,11.49
2018-03-15T15:36:44.437Z,11.51
2018-03-15T15:39:11.892Z,11.45
2018-03-15T15:41:39.387Z,11.42
2018-03-15T15:44:06.889Z,11.39
2018-03-15T15:46:34.379Z,11.37
2018-03-15T15:49:01.884Z,11.29
2018-03-15T15:51:29.323Z,11.21
2018-03-15T15:53:56.858Z,11.21
2018-03-15T15:56:24.322Z,11.23
2018-03-15T15:58:51.842Z,11.24
2018-03-15T16:01:19.321Z,11.19
2018-03-15T16:03:46.809Z,11.14
2018-03-15T16:06:14.270Z,11.08
2018-03-15T16:08:42.637Z,11.06
2018-03-15T16:11:12.179Z,10.95
2018-03-15T16:13:39.625Z,10.81
2018-03-15T16:16:07.098Z,10.75
2018-03-15T16:18:34.566Z,10.75
2018-03-15T16:21:02.107Z,10.65
2018-03-15T16:23:29.600Z,10.61
2018-03-15T16:25:57.125Z,10.52
2018-03-15T16:28:24.574Z,10.42
2018-03-15T16:30:52.029Z,10.36
2018-03-15T16:33:19.481Z,10.37
2018-03-15T16:35:47.084Z,10.31
2018-03-15T16:38:14.588Z,10.24
2018-03-15T16:40:42.069Z,10.28
2018-03-15T16:43:09.547Z,10.21
2018-03-15T16:45:37.083Z,10.11
2018-03-15T16:48:04.553Z,9.98
2018-03-15T16:50:31.998Z,9.99
2018-03-15T16:52:59.498Z,9.96
2018-03-15T16:55:27.051Z,9.87
2018-03-15T16:57:56.217Z,9.84
2018-03-15T17:00:23.780Z,9.79
2018-03-15T17:02:51.327Z,9.73
2018-03-15T17:05:18.792Z,9.65
2018-03-15T17:07:46.287Z,9.58
2018-03-15T17:10:13.770Z,9.56
2018-03-15T17:12:41.247Z,9.53
2018-03-15T17:15:09.633Z,9.54
2018-03-15T17:17:37.114Z,9.48
2018-03-15T17:20:04.559Z,9.43
2018-03-15T17:22:32.167Z,9.42
2018-03-15T17:24:59.652Z,9.39
2018-03-15T17:27:27.126Z,9.32
2018-03-15T17:29:54.592Z,9.27
2018-03-15T17:32:22.134Z,9.21
2018-03-15T17:34:49.661Z,9.00
2018-03-15T17:37:17.174Z,9.00
2018-03-15T17:39:44.632Z,8.95
2018-03-15T17:42:12.093Z,8.87
2018-03-15T17:44:39.549Z,8.84
2018-03-15T17:47:07.176Z,8.86
2018-03-15T17:49:34.692Z,8.86
2018-03-15T17:52:02.883Z,8.80
2018-03-15T17:54:30.673Z,8.73
2018-03-15T17:56:58.300Z,8.67
2018-03-15T17:59:26.162Z,8.60
2018-03-15T18:01:53.624Z,8.59
2018-03-15T18:04:21.212Z,8.49
2018-03-15T18:06:48.653Z,8.47
2018-03-15T18:09:17.099Z,8.40
2018-03-15T18:11:44.703Z,8.34
2018-03-15T18:14:12.252Z,8.32
2018-03-15T18:16:40.527Z,8.30
2018-03-15T18:19:07.970Z,8.27
2018-03-15T18:21:35.506Z,8.21
2018-03-15T18:24:02.949Z,8.20
2018-03-15T18:26:30.506Z,8.15
2018-03-15T18:28:58.019Z,8.10
2018-03-15T18:31:25.608Z,8.00
2018-03-15T18:33:53.174Z,7.93
2018-03-15T18:36:21.323Z,7.90
2018-03-15T18:38:48.844Z,7.84
2018-03-15T18:41:16.433Z,7.85
2018-03-15T18:43:43.936Z,7.84
2018-03-15T18:46:11.461Z,7.78
2018-03-15T18:48:38.989Z,7.74
2018-03-15T18:51:06.451Z,7.73
2018-03-15T18:53:33.951Z,7.72
2018-03-15T18:56:01.479Z,7.64
2018-03-15T18:58:29.117Z,7.60
2018-03-15T19:00:56.601Z,7.60
2018-03-15T19:03:24.035Z,7.54
2018-03-15T19:05:51.754Z,7.49
2018-03-15T19:08:19.254Z,7.49
2018-03-15T19:10:46.746Z,7.47
2018-03-15T19:13:14.354Z,7.37
2018-03-15T19:15:41.854Z,7.46
2018-03-15T19:18:09.328Z,7.43
2018-03-15T19:20:36.884Z,7.47
2018-03-15T19:23:04.393Z,7.44
2018-03-15T19:25:31.888Z,7.42
2018-03-15T19:27:59.326Z,7.33
2018-03-15T19:30:26.906Z,7.36
2018-03-15T19:32:54.685Z,7.37
2018-03-15T19:35:22.505Z,7.29
2018-03-15T19:37:49.973Z,7.26
2018-03-15T19:40:17.478Z,7.22
2018-03-15T19:42:44.994Z,7.26
2018-03-15T19:45:12.493Z,7.22
2018-03-15T19:47:39.996Z,7.22
2018-03-15T19:50:07.618Z,7.14
2018-03-15T19:52:35.122Z,7.10
2018-03-15T19:55:02.631Z,7.09
2018-03-15T19:57:30.136Z,7.09
2018-03-15T19:59:57.621Z,7.04
2018-03-15T20:02:26.156Z,7.00
2018-03-15T20:04:54.075Z,6.97
2018-03-15T20:07:21.615Z,6.95
2018-03-15T20:09:49.121Z,6.90
2018-03-15T20:12:16.716Z,6.92
2018-03-15T20:14:44.268Z,6.89
2018-03-15T20:17:11.955Z,6.86
2018-03-15T20:19:39.534Z,6.86
2018-03-15T20:22:07.020Z,6.78
2018-03-15T20:24:34.516Z,6.78
2018-03-15T20:27:02.010Z,6.78
2018-03-15T20:29:29.582Z,6.78
2018-03-15T20:31:57.120Z,6.75
2018-03-15T20:34:29.706Z,6.72
2018-03-15T20:36:57.195Z,6.70
2018-03-15T20:39:30.151Z,6.70
2018-03-15T20:41:57.702Z,6.65
2018-03-15T20:44:25.255Z,6.65
2018-03-15T20:46:58.346Z,6.64
2018-03-15T20:49:25.888Z,6.62
2018-03-15T20:51:53.374Z,6.66
2018-03-15T20:54:30.472Z,6.62
2018-03-15T20:56:57.944Z,6.63
2018-03-15T20:59:25.404Z,6.61
2018-03-15T21:01:52.924Z,6.58
2018-03-15T21:04:20.454Z,6.61
2018-03-15T21:06:47.904Z,6.60
2018-03-15T21:09:15.360Z,6.58
2018-03-15T21:11:43.695Z,6.59
2018-03-15T21:14:11.212Z,6.56
2018-03-15T21:16:38.699Z,6.54
2018-03-15T21:19:06.204Z,6.52
2018-03-15T21:21:33.808Z,6.57
2018-03-15T21:24:01.259Z,6.54
2018-03-15T21:26:28.713Z,6.54
2018-03-15T21:28:56.190Z,6.57
2018-03-15T21:31:23.684Z,6.56
2018-03-15T21:33:51.186Z,6.55
2018-03-15T21:36:18.699Z,6.54
2018-03-15T21:38:46.168Z,6.51
2018-03-15T21:41:13.675Z,6.49
2018-03-15T21:43:41.190Z,6.51
2018-03-15T21:46:08.663Z,6.48
2018-03-15T21:48:36.206Z,6.47
2018-03-15T21:51:03.720Z,6.43
2018-03-15T21:53:36.132Z,6.46
2018-03-15T21:56:03.702Z,6.41
2018-03-15T21:58:31.160Z,6.50
2018-03-15T22:00:58.734Z,6.55
2018-03-15T22:03:26.176Z,6.53
2018-03-15T22:05:53.728Z,6.51
2018-03-15T22:08:21.172Z,6.47
2018-03-15T22:10:48.659Z,6.45
2018-03-15T22:13:16.112Z,6.41
2018-03-15T22:15:43.564Z,6.37
2018-03-15T22:18:11.020Z,6.33
2018-03-15T22:20:38.469Z,6.35
2018-03-15T22:23:05.954Z,6.37
2018-03-15T22:25:33.414Z,6.33
2018-03-15T22:28:01.757Z,6.31
2018-03-15T22:30:29.256Z,6.28
2018-03-15T22:32:56.686Z,6.32
2018-03-15T22:35:24.156Z,6.37
2018-03-15T22:37:51.620Z,6.30
2018-03-15T22:40:19.102Z,6.29
2018-03-15T22:42:46.604Z,6.33
2018-03-15T22:45:14.078Z,6.34
2018-03-15T22:47:41.557Z,6.33
2018-03-15T22:50:09.092Z,6.30
2018-03-15T22:52:36.618Z,6.23
2018-03-15T22:55:04.168Z,6.22
2018-03-15T22:57:31.568Z,6.19
2018-03-15T22:59:59.079Z,6.18
2018-03-15T23:02:26.582Z,6.16
2018-03-15T23:04:54.094Z,6.15
2018-03-15T23:07:21.572Z,6.09
2018-03-15T23:09:49.027Z,6.10
2018-03-15T23:12:16.509Z,6.16
2018-03-15T23:14:43.982Z,6.19
2018-03-15T23:17:11.426Z,6.19
2018-03-15T23:19:39.058Z,6.17
2018-03-15T23:22:06.962Z,6.14
2018-03-15T23:24:34.443Z,6.11
2018-03-15T23:27:01.922Z,6.13
2018-03-15T23:29:29.475Z,6.11
2018-03-15T23:31:56.969Z,6.13
2018-03-15T23:34:24.443Z,6.10
2018-03-15T23:36:51.908Z,6.11
2018-03-15T23:39:19.397Z,6.09
2018-03-15T23:41:46.891Z,6.06
2018-03-15T23:44:14.350Z,6.04
2018-03-15T23:46:41.789Z,6.08
2018-03-15T23:49:09.236Z,6.05
2018-03-15T23:51:36.696Z,6.03
2018-03-15T23:54:04.132Z,6.05
2018-03-15T23:56:31.901Z,6.03
2018-03-15T23:58:59.441Z,6.04
